MAS249 YSSY-WMKK
Flight info
| Callsign | MAS249 |
|---|---|
| Flight time | N/A |
| Altitude | 38000 |
| Route | GROOK1/16R KADOM A576 LEKAD/N0470F400 A576 ATMAP M635 VTK/N0456F390 B338 IRTAD/N0457F400 A464 SJ G579 VJB A457 GUPTA GUPTA3K |
| Aircraft | A333/H-SDE3GHIJ2J3J5M1RVWXY/LB2D1 |
Departure
| Time | 2026-04-24 06:12 |
|---|---|
| Airport | Sydney Kingsford Smith International Airport (YSSY) |
Arrival
| Time | N/A |
|---|---|
| Airport | Kuala Lumpur International Airport (WMKK) |
| Time | Latitude | Longitude | Altitude | Speed | Heading |
|---|---|---|---|---|---|
| 2026-04-24 05:34 | -33.94009 | 151.16623 | 30 ft | 0 kts | 345° |
| 2026-04-24 05:57 | -33.94011 | 151.16623 | 25 ft | 3 kts | 345° |
| 2026-04-24 05:57 | -33.94029 | 151.16629 | 30 ft | 3 kts | 353° |
| 2026-04-24 05:58 | -33.94049 | 151.16626 | 30 ft | 3 kts | 41° |
| 2026-04-24 05:58 | -33.94063 | 151.16610 | 30 ft | 0 kts | 70° |
| 2026-04-24 06:03 | -33.94064 | 151.16620 | 25 ft | 3 kts | 96° |
| 2026-04-24 06:04 | -33.94070 | 151.16657 | 28 ft | 6 kts | 103° |
| 2026-04-24 06:04 | -33.94078 | 151.16707 | 26 ft | 7 kts | 91° |
| 2026-04-24 06:04 | -33.94074 | 151.16767 | 25 ft | 8 kts | 86° |
| 2026-04-24 06:04 | -33.94062 | 151.16822 | 25 ft | 8 kts | 75° |
| 2026-04-24 06:05 | -33.94046 | 151.16894 | 27 ft | 10 kts | 75° |
| 2026-04-24 06:05 | -33.94027 | 151.16982 | 27 ft | 10 kts | 75° |
| 2026-04-24 06:05 | -33.94005 | 151.17068 | 27 ft | 11 kts | 69° |
| 2026-04-24 06:05 | -33.93978 | 151.17172 | 24 ft | 13 kts | 58° |
| 2026-04-24 06:06 | -33.93908 | 151.17199 | 21 ft | 8 kts | 355° |
| 2026-04-24 06:06 | -33.93877 | 151.17196 | 20 ft | 10 kts | 352° |
| 2026-04-24 06:06 | -33.93791 | 151.17178 | 19 ft | 13 kts | 350° |
| 2026-04-24 06:06 | -33.93713 | 151.17157 | 23 ft | 10 kts | 347° |
| 2026-04-24 06:07 | -33.93649 | 151.17139 | 27 ft | 11 kts | 347° |
| 2026-04-24 06:07 | -33.93574 | 151.17119 | 27 ft | 12 kts | 347° |
| 2026-04-24 06:07 | -33.93494 | 151.17098 | 25 ft | 12 kts | 347° |
| 2026-04-24 06:07 | -33.93413 | 151.17079 | 29 ft | 12 kts | 346° |
| 2026-04-24 06:08 | -33.93340 | 151.17046 | 27 ft | 11 kts | 332° |
| 2026-04-24 06:08 | -33.93283 | 151.16990 | 24 ft | 10 kts | 319° |
| 2026-04-24 06:08 | -33.93226 | 151.16957 | 28 ft | 8 kts | 347° |
| 2026-04-24 06:08 | -33.93167 | 151.16941 | 27 ft | 9 kts | 346° |
| 2026-04-24 06:09 | -33.93101 | 151.16917 | 27 ft | 10 kts | 342° |
| 2026-04-24 06:09 | -33.93035 | 151.16910 | 29 ft | 9 kts | 4° |
| 2026-04-24 06:09 | -33.92996 | 151.16943 | 29 ft | 5 kts | 55° |
| 2026-04-24 06:09 | -33.92979 | 151.16987 | 25 ft | 7 kts | 72° |
| 2026-04-24 06:10 | -33.92974 | 151.17006 | 26 ft | 0 kts | 73° |
| 2026-04-24 06:10 | -33.92973 | 151.17009 | 26 ft | 3 kts | 73° |
| 2026-04-24 06:11 | -33.93005 | 151.17171 | 28 ft | 12 kts | 156° |
| 2026-04-24 06:11 | -33.93177 | 151.17220 | 31 ft | 51 kts | 166° |
| 2026-04-24 06:11 | -33.93706 | 151.17362 | 19 ft | 104 kts | 167° |
| 2026-04-24 06:11 | -33.94559 | 151.17583 | 29 ft | 146 kts | 168° |
| 2026-04-24 06:12 | -33.95578 | 151.17910 | 483 ft | 142 kts | 163° |
| 2026-04-24 06:12 | -33.96608 | 151.18102 | 697 ft | 173 kts | 178° |
| 2026-04-24 06:12 | -33.97831 | 151.17985 | 1224 ft | 177 kts | 182° |
| 2026-04-24 06:12 | -33.99092 | 151.17835 | 1534 ft | 189 kts | 181° |
| 2026-04-24 06:13 | -34.00438 | 151.17704 | 1924 ft | 196 kts | 181° |
| 2026-04-24 06:13 | -34.01809 | 151.17591 | 2339 ft | 203 kts | 180° |
| 2026-04-24 06:13 | -34.03287 | 151.17723 | 2497 ft | 224 kts | 166° |
| 2026-04-24 06:13 | -34.04881 | 151.18197 | 2749 ft | 246 kts | 163° |
| 2026-04-24 06:14 | -34.06529 | 151.18755 | 3290 ft | 253 kts | 162° |
| 2026-04-24 06:14 | -34.08235 | 151.19337 | 3953 ft | 257 kts | 162° |
| 2026-04-24 06:14 | -34.09975 | 151.19926 | 4579 ft | 262 kts | 163° |
| 2026-04-24 06:14 | -34.11746 | 151.20521 | 4910 ft | 264 kts | 162° |
| 2026-04-24 06:15 | -34.13524 | 151.21116 | 4977 ft | 267 kts | 163° |
| 2026-04-24 06:15 | -34.15328 | 151.21719 | 4984 ft | 271 kts | 163° |
| 2026-04-24 06:15 | -34.17157 | 151.22301 | 4978 ft | 272 kts | 167° |
| 2026-04-24 06:15 | -34.19016 | 151.22428 | 5229 ft | 274 kts | 186° |
| 2026-04-24 06:16 | -34.20839 | 151.21725 | 5806 ft | 279 kts | 209° |
| 2026-04-24 06:16 | -34.22347 | 151.20252 | 6590 ft | 281 kts | 226° |
| 2026-04-24 06:16 | -34.23650 | 151.18492 | 7357 ft | 282 kts | 229° |
| 2026-04-24 06:16 | -34.24810 | 151.16573 | 8075 ft | 285 kts | 241° |
| 2026-04-24 06:17 | -34.25432 | 151.14286 | 8778 ft | 290 kts | 263° |
| 2026-04-24 06:17 | -34.25302 | 151.11849 | 9480 ft | 294 kts | 281° |
| 2026-04-24 06:17 | -34.24816 | 151.09431 | 10157 ft | 299 kts | 285° |
| 2026-04-24 06:17 | -34.24036 | 151.07060 | 10655 ft | 309 kts | 301° |
| 2026-04-24 06:18 | -34.22593 | 151.05083 | 11029 ft | 320 kts | 326° |
| 2026-04-24 06:18 | -34.20568 | 151.03964 | 11566 ft | 323 kts | 347° |
| 2026-04-24 06:18 | -34.18359 | 151.03389 | 12186 ft | 327 kts | 351° |
| 2026-04-24 06:18 | -34.16464 | 151.02975 | 12745 ft | 329 kts | 352° |
| 2026-04-24 06:19 | -34.14865 | 151.02629 | 13206 ft | 331 kts | 352° |
| 2026-04-24 06:19 | -34.12586 | 151.02124 | 13853 ft | 334 kts | 351° |
| 2026-04-24 06:19 | -34.10307 | 151.01488 | 14462 ft | 338 kts | 347° |
| 2026-04-24 06:20 | -34.08034 | 151.00756 | 15036 ft | 341 kts | 347° |
| 2026-04-24 06:20 | -34.05725 | 150.99994 | 15589 ft | 344 kts | 346° |
| 2026-04-24 06:20 | -34.03407 | 150.99226 | 16158 ft | 347 kts | 346° |
| 2026-04-24 06:20 | -34.01111 | 150.98281 | 16718 ft | 352 kts | 337° |
| 2026-04-24 06:21 | -33.99027 | 150.96698 | 17261 ft | 357 kts | 320° |
| 2026-04-24 06:21 | -33.97372 | 150.94413 | 17539 ft | 371 kts | 303° |
| 2026-04-24 06:21 | -33.96125 | 150.91638 | 17731 ft | 384 kts | 296° |
| 2026-04-24 06:21 | -33.94956 | 150.88692 | 17917 ft | 396 kts | 296° |
| 2026-04-24 06:22 | -33.93765 | 150.85666 | 18248 ft | 403 kts | 296° |
| 2026-04-24 06:22 | -33.92564 | 150.82646 | 18722 ft | 407 kts | 296° |
| 2026-04-24 06:22 | -33.91326 | 150.79560 | 19150 ft | 410 kts | 296° |
| 2026-04-24 06:22 | -33.90076 | 150.76463 | 19580 ft | 413 kts | 296° |
| 2026-04-24 06:23 | -33.88816 | 150.73350 | 19995 ft | 415 kts | 296° |
| 2026-04-24 06:23 | -33.87546 | 150.70221 | 20423 ft | 417 kts | 296° |
| 2026-04-24 06:23 | -33.86269 | 150.67081 | 20851 ft | 420 kts | 296° |
| 2026-04-24 06:23 | -33.84979 | 150.63912 | 21271 ft | 422 kts | 296° |
| 2026-04-24 06:24 | -33.83686 | 150.60738 | 21688 ft | 424 kts | 296° |
| 2026-04-24 06:24 | -33.82825 | 150.58627 | 21964 ft | 425 kts | 296° |
| 2026-04-24 06:24 | -33.81520 | 150.55430 | 22365 ft | 427 kts | 296° |
| 2026-04-24 06:24 | -33.79761 | 150.51127 | 22898 ft | 430 kts | 296° |
| 2026-04-24 06:25 | -33.78432 | 150.47881 | 23290 ft | 433 kts | 296° |
| 2026-04-24 06:25 | -33.77100 | 150.44628 | 23675 ft | 435 kts | 296° |
| 2026-04-24 06:25 | -33.75780 | 150.41408 | 24048 ft | 437 kts | 296° |
| 2026-04-24 06:25 | -33.74432 | 150.38125 | 24354 ft | 439 kts | 296° |
| 2026-04-24 06:26 | -33.73077 | 150.34825 | 24655 ft | 442 kts | 296° |
| 2026-04-24 06:26 | -33.71725 | 150.31507 | 24969 ft | 444 kts | 294° |
| 2026-04-24 06:26 | -33.70549 | 150.28069 | 25265 ft | 445 kts | 290° |
| 2026-04-24 06:26 | -33.69512 | 150.24559 | 25548 ft | 447 kts | 288° |
| 2026-04-24 06:27 | -33.68540 | 150.21005 | 25852 ft | 449 kts | 287° |
| 2026-04-24 06:27 | -33.67593 | 150.17424 | 26135 ft | 451 kts | 286° |
| 2026-04-24 06:27 | -33.66644 | 150.13816 | 26401 ft | 454 kts | 286° |
| 2026-04-24 06:27 | -33.65698 | 150.10246 | 26684 ft | 456 kts | 287° |
| 2026-04-24 06:28 | -33.64724 | 150.06618 | 26968 ft | 458 kts | 287° |
| 2026-04-24 06:28 | -33.63738 | 150.02978 | 27240 ft | 460 kts | 287° |
| 2026-04-24 06:28 | -33.62742 | 149.99326 | 27512 ft | 462 kts | 287° |
| 2026-04-24 06:28 | -33.61732 | 149.95644 | 27781 ft | 464 kts | 287° |
| 2026-04-24 06:29 | -33.60720 | 149.91959 | 28036 ft | 466 kts | 287° |
| 2026-04-24 06:29 | -33.59702 | 149.88259 | 28297 ft | 468 kts | 286° |
| 2026-04-24 06:29 | -33.58678 | 149.84545 | 28514 ft | 471 kts | 286° |
| 2026-04-24 06:29 | -33.57644 | 149.80793 | 28754 ft | 473 kts | 286° |
| 2026-04-24 06:30 | -33.56609 | 149.77040 | 28994 ft | 475 kts | 286° |
| 2026-04-24 06:30 | -33.55568 | 149.73271 | 29245 ft | 477 kts | 286° |
| 2026-04-24 06:30 | -33.54523 | 149.69492 | 29488 ft | 479 kts | 286° |
| 2026-04-24 06:30 | -33.53471 | 149.65694 | 29723 ft | 481 kts | 286° |
| 2026-04-24 06:31 | -33.52410 | 149.61868 | 29958 ft | 483 kts | 286° |
| 2026-04-24 06:31 | -33.51360 | 149.58091 | 30132 ft | 486 kts | 285° |
| 2026-04-24 06:31 | -33.50289 | 149.54238 | 30268 ft | 490 kts | 285° |
| 2026-04-24 06:31 | -33.49209 | 149.50358 | 30497 ft | 492 kts | 285° |
| 2026-04-24 06:32 | -33.48124 | 149.46468 | 30669 ft | 494 kts | 285° |
| 2026-04-24 06:32 | -33.47030 | 149.42550 | 30877 ft | 495 kts | 285° |
| 2026-04-24 06:32 | -33.45937 | 149.38639 | 31080 ft | 497 kts | 285° |
| 2026-04-24 06:32 | -33.44838 | 149.34713 | 31270 ft | 498 kts | 285° |
| 2026-04-24 06:33 | -33.43733 | 149.30776 | 31455 ft | 500 kts | 285° |
| 2026-04-24 06:33 | -33.42624 | 149.26829 | 31674 ft | 501 kts | 285° |
| 2026-04-24 06:33 | -33.41512 | 149.22877 | 31946 ft | 500 kts | 285° |
| 2026-04-24 06:33 | -33.40403 | 149.18941 | 32218 ft | 499 kts | 285° |
| 2026-04-24 06:34 | -33.39294 | 149.15009 | 32473 ft | 499 kts | 285° |
| 2026-04-24 06:34 | -33.38559 | 149.12406 | 32633 ft | 499 kts | 285° |
| 2026-04-24 06:34 | -33.37447 | 149.08473 | 32893 ft | 498 kts | 284° |
| 2026-04-24 06:34 | -33.36337 | 149.04550 | 33127 ft | 498 kts | 284° |
| 2026-04-24 06:35 | -33.35227 | 149.00632 | 33366 ft | 497 kts | 284° |
| 2026-04-24 06:35 | -33.34118 | 148.96725 | 33635 ft | 496 kts | 284° |
| 2026-04-24 06:35 | -33.33006 | 148.92811 | 33838 ft | 496 kts | 284° |
| 2026-04-24 06:35 | -33.31535 | 148.87644 | 34152 ft | 495 kts | 284° |
| 2026-04-24 06:36 | -33.30786 | 148.85016 | 34339 ft | 495 kts | 284° |
| 2026-04-24 06:36 | -33.29692 | 148.81182 | 34554 ft | 494 kts | 284° |
| 2026-04-24 06:36 | -33.28581 | 148.77295 | 34749 ft | 493 kts | 284° |
| 2026-04-24 06:36 | -33.27473 | 148.73424 | 34957 ft | 491 kts | 284° |
| 2026-04-24 06:37 | -33.26370 | 148.69574 | 35229 ft | 489 kts | 284° |
| 2026-04-24 06:37 | -33.25269 | 148.65738 | 35419 ft | 488 kts | 284° |
| 2026-04-24 06:37 | -33.24167 | 148.61902 | 35588 ft | 488 kts | 284° |
| 2026-04-24 06:37 | -33.23066 | 148.58071 | 35750 ft | 488 kts | 284° |
| 2026-04-24 06:38 | -33.21965 | 148.54246 | 35940 ft | 487 kts | 284° |
| 2026-04-24 06:38 | -33.20864 | 148.50428 | 36115 ft | 486 kts | 284° |
| 2026-04-24 06:38 | -33.19761 | 148.46608 | 36303 ft | 485 kts | 284° |
| 2026-04-24 06:38 | -33.18679 | 148.42866 | 36569 ft | 482 kts | 284° |
| 2026-04-24 06:39 | -33.17587 | 148.39097 | 36763 ft | 480 kts | 284° |
| 2026-04-24 06:39 | -33.16495 | 148.35330 | 36889 ft | 480 kts | 284° |
| 2026-04-24 06:39 | -33.15402 | 148.31560 | 37035 ft | 481 kts | 284° |
| 2026-04-24 06:39 | -33.14308 | 148.27795 | 37153 ft | 480 kts | 284° |
| 2026-04-24 06:40 | -33.13030 | 148.24099 | 37303 ft | 485 kts | 292° |
| 2026-04-24 06:40 | -33.11376 | 148.20580 | 37464 ft | 487 kts | 296° |
| 2026-04-24 06:40 | -33.09608 | 148.17130 | 37664 ft | 485 kts | 297° |
| 2026-04-24 06:40 | -33.07798 | 148.13745 | 37896 ft | 484 kts | 298° |
| 2026-04-24 06:41 | -33.05966 | 148.10387 | 38050 ft | 483 kts | 298° |
| 2026-04-24 06:41 | -33.02282 | 148.03679 | 38224 ft | 484 kts | 298° |
| 2026-04-24 06:41 | -33.00466 | 148.00365 | 38347 ft | 484 kts | 298° |
| 2026-04-24 06:42 | -32.98627 | 147.97003 | 38372 ft | 485 kts | 298° |
| 2026-04-24 06:42 | -32.94958 | 147.90279 | 38363 ft | 483 kts | 298° |
| 2026-04-24 06:43 | -32.91308 | 147.83593 | 38369 ft | 481 kts | 298° |
| 2026-04-24 06:43 | -32.87659 | 147.76918 | 38368 ft | 481 kts | 298° |
| 2026-04-24 06:44 | -32.84009 | 147.70255 | 38367 ft | 481 kts | 298° |
| 2026-04-24 06:44 | -32.80375 | 147.63632 | 38361 ft | 481 kts | 298° |
| 2026-04-24 06:45 | -32.76729 | 147.57002 | 38366 ft | 478 kts | 299° |
| 2026-04-24 06:45 | -32.73088 | 147.50391 | 38365 ft | 478 kts | 299° |
| 2026-04-24 06:46 | -32.69446 | 147.43791 | 38360 ft | 478 kts | 299° |
| 2026-04-24 06:46 | -32.65801 | 147.37196 | 38352 ft | 478 kts | 299° |
| 2026-04-24 06:47 | -32.62186 | 147.30667 | 38363 ft | 475 kts | 299° |
| 2026-04-24 06:47 | -32.58560 | 147.24130 | 38361 ft | 475 kts | 299° |
| 2026-04-24 06:48 | -32.54923 | 147.17584 | 38362 ft | 475 kts | 299° |
| 2026-04-24 06:48 | -32.51284 | 147.11046 | 38352 ft | 476 kts | 299° |
| 2026-04-24 06:49 | -32.47647 | 147.04522 | 38360 ft | 474 kts | 299° |
| 2026-04-24 06:49 | -32.44017 | 146.98026 | 38359 ft | 473 kts | 299° |
| 2026-04-24 06:50 | -32.40380 | 146.91525 | 38360 ft | 473 kts | 299° |
| 2026-04-24 06:50 | -32.36745 | 146.85039 | 38361 ft | 473 kts | 299° |
| 2026-04-24 06:51 | -32.33130 | 146.78600 | 38358 ft | 472 kts | 300° |
| 2026-04-24 06:51 | -32.29498 | 146.72142 | 38360 ft | 472 kts | 300° |
| 2026-04-24 06:52 | -32.25861 | 146.65687 | 38360 ft | 472 kts | 300° |
| 2026-04-24 06:52 | -32.22219 | 146.59234 | 38361 ft | 472 kts | 300° |
| 2026-04-24 06:53 | -32.18603 | 146.52836 | 38358 ft | 472 kts | 300° |
| 2026-04-24 06:53 | -32.14959 | 146.46401 | 38357 ft | 472 kts | 300° |
| 2026-04-24 06:54 | -32.11312 | 146.39970 | 38358 ft | 472 kts | 300° |
| 2026-04-24 06:54 | -32.07655 | 146.33533 | 38355 ft | 472 kts | 300° |
| 2026-04-24 06:55 | -32.03997 | 146.27106 | 38347 ft | 472 kts | 300° |
| 2026-04-24 06:55 | -32.00341 | 146.20695 | 38341 ft | 471 kts | 300° |
| 2026-04-24 06:56 | -31.96681 | 146.14285 | 38340 ft | 471 kts | 300° |
| 2026-04-24 06:56 | -31.93045 | 146.07928 | 38337 ft | 471 kts | 300° |
| 2026-04-24 06:57 | -31.89383 | 146.01535 | 38348 ft | 471 kts | 300° |
| 2026-04-24 06:57 | -31.85721 | 145.95156 | 38346 ft | 470 kts | 300° |
| 2026-04-24 06:58 | -31.82054 | 145.88776 | 38346 ft | 470 kts | 300° |
| 2026-04-24 06:58 | -31.78389 | 145.82412 | 38343 ft | 470 kts | 300° |
| 2026-04-24 06:59 | -31.74746 | 145.76095 | 38337 ft | 470 kts | 300° |
| 2026-04-24 06:59 | -31.71081 | 145.69752 | 38343 ft | 469 kts | 300° |
| 2026-04-24 07:00 | -31.67412 | 145.63411 | 38336 ft | 469 kts | 300° |
| 2026-04-24 07:00 | -31.63747 | 145.57086 | 38340 ft | 469 kts | 301° |
| 2026-04-24 07:01 | -31.60077 | 145.50765 | 38327 ft | 469 kts | 301° |
| 2026-04-24 07:01 | -31.56406 | 145.44454 | 38334 ft | 467 kts | 301° |
| 2026-04-24 07:02 | -31.52769 | 145.38210 | 38336 ft | 467 kts | 301° |
| 2026-04-24 07:02 | -31.49106 | 145.31930 | 38334 ft | 467 kts | 301° |
| 2026-04-24 07:03 | -31.45434 | 145.25646 | 38324 ft | 467 kts | 301° |
| 2026-04-24 07:03 | -31.41769 | 145.19385 | 38334 ft | 466 kts | 301° |
| 2026-04-24 07:04 | -31.38103 | 145.13131 | 38331 ft | 466 kts | 301° |
| 2026-04-24 07:04 | -31.34462 | 145.06931 | 38330 ft | 465 kts | 301° |
| 2026-04-24 07:05 | -31.30796 | 145.00696 | 38314 ft | 466 kts | 301° |
| 2026-04-24 07:05 | -31.27123 | 144.94462 | 38325 ft | 464 kts | 301° |
| 2026-04-24 07:06 | -31.23463 | 144.88260 | 38323 ft | 464 kts | 301° |
| 2026-04-24 07:06 | -31.19794 | 144.82050 | 38321 ft | 464 kts | 301° |
| 2026-04-24 07:07 | -31.16130 | 144.75858 | 38321 ft | 464 kts | 301° |
| 2026-04-24 07:07 | -31.10622 | 144.66570 | 38318 ft | 463 kts | 301° |
| 2026-04-24 07:08 | -31.06980 | 144.60442 | 38319 ft | 463 kts | 301° |
| 2026-04-24 07:08 | -31.03310 | 144.54275 | 38318 ft | 463 kts | 301° |
| 2026-04-24 07:09 | -30.99633 | 144.48106 | 38313 ft | 463 kts | 301° |
| 2026-04-24 07:09 | -30.95961 | 144.41956 | 38317 ft | 462 kts | 301° |
| 2026-04-24 07:10 | -30.92288 | 144.35814 | 38318 ft | 462 kts | 301° |
| 2026-04-24 07:10 | -30.88617 | 144.29683 | 38312 ft | 462 kts | 301° |
| 2026-04-24 07:11 | -30.84962 | 144.23591 | 38314 ft | 461 kts | 301° |
| 2026-04-24 07:11 | -30.81294 | 144.17486 | 38315 ft | 460 kts | 301° |
| 2026-04-24 07:12 | -30.77630 | 144.11396 | 38291 ft | 459 kts | 301° |
| 2026-04-24 07:12 | -30.73968 | 144.05318 | 38311 ft | 459 kts | 301° |
| 2026-04-24 07:13 | -30.70300 | 143.99239 | 38311 ft | 459 kts | 301° |
| 2026-04-24 07:13 | -30.66632 | 143.93169 | 38311 ft | 459 kts | 301° |
| 2026-04-24 07:14 | -30.62960 | 143.87104 | 38301 ft | 459 kts | 301° |
| 2026-04-24 07:14 | -30.59310 | 143.81083 | 38299 ft | 459 kts | 301° |
| 2026-04-24 07:15 | -30.55628 | 143.75020 | 38304 ft | 459 kts | 301° |
| 2026-04-24 07:15 | -30.51953 | 143.68978 | 38303 ft | 458 kts | 300° |
| 2026-04-24 07:16 | -30.48285 | 143.62955 | 38299 ft | 457 kts | 301° |
| 2026-04-24 07:16 | -30.44608 | 143.56927 | 38304 ft | 457 kts | 301° |
| 2026-04-24 07:17 | -30.40957 | 143.50948 | 38302 ft | 458 kts | 301° |
| 2026-04-24 07:17 | -30.37280 | 143.44940 | 38299 ft | 457 kts | 300° |
| 2026-04-24 07:18 | -30.33601 | 143.38935 | 38295 ft | 457 kts | 300° |
| 2026-04-24 07:18 | -30.29915 | 143.32927 | 38295 ft | 457 kts | 300° |
| 2026-04-24 07:19 | -30.26231 | 143.26932 | 38295 ft | 457 kts | 300° |
| 2026-04-24 07:19 | -30.22543 | 143.20942 | 38289 ft | 457 kts | 300° |
| 2026-04-24 07:20 | -30.18855 | 143.14958 | 38289 ft | 457 kts | 300° |
| 2026-04-24 07:20 | -30.15183 | 143.09012 | 38290 ft | 457 kts | 300° |
| 2026-04-24 07:21 | -30.11489 | 143.03040 | 38287 ft | 457 kts | 300° |
| 2026-04-24 07:21 | -30.07793 | 142.97078 | 38287 ft | 457 kts | 300° |
| 2026-04-24 07:22 | -30.04093 | 142.91116 | 38285 ft | 456 kts | 300° |
| 2026-04-24 07:22 | -30.00398 | 142.85170 | 38279 ft | 456 kts | 300° |
| 2026-04-24 07:23 | -29.96725 | 142.79268 | 38279 ft | 456 kts | 300° |
| 2026-04-24 07:23 | -29.93019 | 142.73324 | 38274 ft | 455 kts | 300° |
| 2026-04-24 07:24 | -29.89325 | 142.67407 | 38277 ft | 455 kts | 300° |
| 2026-04-24 07:24 | -29.85632 | 142.61501 | 38268 ft | 454 kts | 300° |
| 2026-04-24 07:25 | -29.81935 | 142.55600 | 38274 ft | 454 kts | 300° |
| 2026-04-24 07:25 | -29.78231 | 142.49695 | 38271 ft | 454 kts | 300° |
| 2026-04-24 07:26 | -29.74561 | 142.43855 | 38270 ft | 453 kts | 300° |
| 2026-04-24 07:26 | -29.70871 | 142.37989 | 38272 ft | 453 kts | 300° |
| 2026-04-24 07:27 | -29.67179 | 142.32128 | 38263 ft | 453 kts | 300° |
| 2026-04-24 07:27 | -29.63483 | 142.26271 | 38258 ft | 451 kts | 300° |
| 2026-04-24 07:28 | -29.59800 | 142.20443 | 38265 ft | 450 kts | 300° |
| 2026-04-24 07:28 | -29.56119 | 142.14624 | 38263 ft | 450 kts | 300° |
| 2026-04-24 07:29 | -29.52459 | 142.08848 | 38262 ft | 450 kts | 300° |
| 2026-04-24 07:29 | -29.48766 | 142.03028 | 38246 ft | 450 kts | 300° |
| 2026-04-24 07:30 | -29.45085 | 141.97237 | 38259 ft | 448 kts | 299° |
| 2026-04-24 07:30 | -29.41412 | 141.91464 | 38258 ft | 448 kts | 299° |
| 2026-04-24 07:31 | -29.37737 | 141.85696 | 38258 ft | 448 kts | 300° |
| 2026-04-24 07:31 | -29.34078 | 141.79961 | 38243 ft | 448 kts | 299° |
| 2026-04-24 07:32 | -29.30401 | 141.74208 | 38269 ft | 447 kts | 299° |
| 2026-04-24 07:32 | -29.26728 | 141.68468 | 38238 ft | 447 kts | 299° |
| 2026-04-24 07:33 | -29.23053 | 141.62731 | 38258 ft | 447 kts | 299° |
| 2026-04-24 07:33 | -29.19370 | 141.56991 | 38226 ft | 447 kts | 299° |
| 2026-04-24 07:34 | -29.15692 | 141.51266 | 38243 ft | 446 kts | 299° |
| 2026-04-24 07:34 | -29.12036 | 141.45585 | 38242 ft | 446 kts | 299° |
| 2026-04-24 07:35 | -29.08349 | 141.39863 | 38238 ft | 446 kts | 299° |
| 2026-04-24 07:35 | -29.04668 | 141.34158 | 38226 ft | 446 kts | 299° |
| 2026-04-24 07:36 | -29.00984 | 141.28457 | 38233 ft | 446 kts | 299° |
| 2026-04-24 07:36 | -28.97295 | 141.22753 | 38226 ft | 446 kts | 299° |
| 2026-04-24 07:37 | -28.93607 | 141.17062 | 38228 ft | 446 kts | 299° |
| 2026-04-24 07:37 | -28.89914 | 141.11368 | 38220 ft | 446 kts | 299° |
| 2026-04-24 07:38 | -28.86245 | 141.05723 | 38217 ft | 446 kts | 298° |
| 2026-04-24 07:38 | -28.82550 | 141.00043 | 38216 ft | 446 kts | 298° |
| 2026-04-24 07:39 | -28.78856 | 140.94371 | 38216 ft | 446 kts | 298° |
| 2026-04-24 07:39 | -28.75161 | 140.88705 | 38217 ft | 446 kts | 298° |
| 2026-04-24 07:40 | -28.71480 | 140.83072 | 38202 ft | 445 kts | 298° |
| 2026-04-24 07:40 | -28.67773 | 140.77404 | 38205 ft | 443 kts | 298° |
| 2026-04-24 07:41 | -28.64110 | 140.71810 | 38205 ft | 443 kts | 298° |
| 2026-04-24 07:41 | -28.60431 | 140.66196 | 38206 ft | 443 kts | 298° |
| 2026-04-24 07:42 | -28.56747 | 140.60587 | 38205 ft | 442 kts | 297° |
| 2026-04-24 07:42 | -28.53071 | 140.54998 | 38203 ft | 441 kts | 297° |
| 2026-04-24 07:43 | -28.49401 | 140.49423 | 38200 ft | 441 kts | 297° |
| 2026-04-24 07:43 | -28.45725 | 140.43845 | 38200 ft | 440 kts | 297° |
| 2026-04-24 07:44 | -28.42075 | 140.38318 | 38196 ft | 440 kts | 297° |
| 2026-04-24 07:44 | -28.38405 | 140.32766 | 38194 ft | 439 kts | 297° |
| 2026-04-24 07:45 | -28.34741 | 140.27228 | 38194 ft | 439 kts | 297° |
| 2026-04-24 07:45 | -28.31069 | 140.21685 | 38191 ft | 439 kts | 297° |
| 2026-04-24 07:46 | -28.27400 | 140.16157 | 38195 ft | 438 kts | 296° |
| 2026-04-24 07:46 | -28.23745 | 140.10660 | 38176 ft | 436 kts | 296° |
| 2026-04-24 07:47 | -28.20096 | 140.05174 | 38193 ft | 434 kts | 296° |
| 2026-04-24 07:47 | -28.16487 | 139.99754 | 38200 ft | 434 kts | 296° |
| 2026-04-24 07:48 | -28.12852 | 139.94304 | 38187 ft | 433 kts | 295° |
| 2026-04-24 07:48 | -28.09227 | 139.88880 | 38195 ft | 431 kts | 295° |
| 2026-04-24 07:49 | -28.05617 | 139.83478 | 38196 ft | 430 kts | 295° |
| 2026-04-24 07:49 | -28.02002 | 139.78073 | 38196 ft | 430 kts | 295° |
| 2026-04-24 07:50 | -27.98409 | 139.72712 | 38189 ft | 430 kts | 295° |
| 2026-04-24 07:50 | -27.94795 | 139.67330 | 38193 ft | 429 kts | 295° |
| 2026-04-24 07:51 | -27.91190 | 139.61965 | 38192 ft | 429 kts | 295° |
| 2026-04-24 07:51 | -27.87580 | 139.56597 | 38187 ft | 429 kts | 295° |
| 2026-04-24 07:52 | -27.83993 | 139.51272 | 38175 ft | 428 kts | 294° |
| 2026-04-24 07:52 | -27.80361 | 139.45890 | 38186 ft | 427 kts | 294° |
| 2026-04-24 07:53 | -27.76784 | 139.40593 | 38185 ft | 427 kts | 294° |
| 2026-04-24 07:53 | -27.73187 | 139.35272 | 38183 ft | 426 kts | 294° |
| 2026-04-24 07:54 | -27.69583 | 139.29948 | 38181 ft | 426 kts | 294° |
| 2026-04-24 07:54 | -27.65985 | 139.24638 | 38182 ft | 426 kts | 294° |
| 2026-04-24 07:55 | -27.62399 | 139.19354 | 38182 ft | 426 kts | 294° |
| 2026-04-24 07:55 | -27.58793 | 139.14046 | 38180 ft | 426 kts | 294° |
| 2026-04-24 07:56 | -27.55185 | 139.08742 | 38173 ft | 427 kts | 294° |
| 2026-04-24 07:56 | -27.51580 | 139.03452 | 38181 ft | 425 kts | 294° |
| 2026-04-24 07:57 | -27.47976 | 138.98169 | 38182 ft | 425 kts | 294° |
| 2026-04-24 07:57 | -27.44375 | 138.92893 | 38180 ft | 425 kts | 294° |
| 2026-04-24 07:58 | -27.40775 | 138.87626 | 38178 ft | 425 kts | 294° |
| 2026-04-24 07:58 | -27.37181 | 138.82374 | 38175 ft | 423 kts | 294° |
| 2026-04-24 07:59 | -27.34197 | 138.78023 | 38179 ft | 421 kts | 294° |
| 2026-04-24 07:59 | -27.30041 | 138.71963 | 38174 ft | 421 kts | 294° |
| 2026-04-24 08:00 | -27.27045 | 138.67598 | 38179 ft | 421 kts | 294° |
| 2026-04-24 08:00 | -27.22890 | 138.61557 | 38174 ft | 419 kts | 294° |
| 2026-04-24 08:01 | -27.19331 | 138.56389 | 38174 ft | 418 kts | 294° |
| 2026-04-24 08:01 | -27.16375 | 138.52098 | 38170 ft | 418 kts | 294° |
| 2026-04-24 08:02 | -27.12233 | 138.46093 | 38170 ft | 418 kts | 294° |
| 2026-04-24 08:02 | -27.08672 | 138.40938 | 38170 ft | 418 kts | 295° |
| 2026-04-24 08:03 | -27.05114 | 138.35795 | 38174 ft | 417 kts | 295° |
| 2026-04-24 08:03 | -27.02129 | 138.31484 | 38173 ft | 417 kts | 295° |
| 2026-04-24 08:04 | -26.98593 | 138.26381 | 38174 ft | 417 kts | 295° |
| 2026-04-24 08:04 | -26.95031 | 138.21249 | 38167 ft | 417 kts | 295° |
| 2026-04-24 08:05 | -26.91469 | 138.16122 | 38173 ft | 417 kts | 295° |
| 2026-04-24 08:05 | -26.87901 | 138.10994 | 38169 ft | 417 kts | 295° |
| 2026-04-24 08:06 | -26.84338 | 138.05879 | 38169 ft | 417 kts | 295° |
| 2026-04-24 08:06 | -26.80795 | 138.00798 | 38144 ft | 417 kts | 296° |
| 2026-04-24 08:07 | -26.77224 | 137.95679 | 38173 ft | 418 kts | 296° |
| 2026-04-24 08:07 | -26.73635 | 137.90544 | 38168 ft | 418 kts | 296° |
| 2026-04-24 08:08 | -26.70048 | 137.85421 | 38172 ft | 418 kts | 296° |
| 2026-04-24 08:09 | -26.64684 | 137.77765 | 38158 ft | 419 kts | 296° |
| 2026-04-24 08:09 | -26.61093 | 137.72647 | 38172 ft | 419 kts | 296° |
| 2026-04-24 08:10 | -26.57495 | 137.67526 | 38178 ft | 419 kts | 296° |
| 2026-04-24 08:10 | -26.53891 | 137.62402 | 38176 ft | 419 kts | 296° |
| 2026-04-24 08:11 | -26.50289 | 137.57285 | 38166 ft | 419 kts | 297° |
| 2026-04-24 08:11 | -26.46679 | 137.52163 | 38170 ft | 420 kts | 297° |
| 2026-04-24 08:12 | -26.43090 | 137.47080 | 38173 ft | 420 kts | 297° |
| 2026-04-24 08:12 | -26.39474 | 137.41962 | 38170 ft | 420 kts | 297° |
| 2026-04-24 08:13 | -26.35859 | 137.36850 | 38166 ft | 420 kts | 297° |
| 2026-04-24 08:13 | -26.32236 | 137.31734 | 38170 ft | 421 kts | 297° |
| 2026-04-24 08:14 | -26.28609 | 137.26616 | 38167 ft | 421 kts | 297° |
| 2026-04-24 08:14 | -26.24973 | 137.21494 | 38167 ft | 421 kts | 297° |
| 2026-04-24 08:15 | -26.21361 | 137.16412 | 38167 ft | 421 kts | 297° |
| 2026-04-24 08:15 | -26.17720 | 137.11293 | 38168 ft | 421 kts | 297° |
| 2026-04-24 08:16 | -26.14081 | 137.06183 | 38170 ft | 421 kts | 297° |
| 2026-04-24 08:16 | -26.10441 | 137.01077 | 38166 ft | 421 kts | 297° |
| 2026-04-24 08:17 | -26.06792 | 136.95963 | 38166 ft | 422 kts | 298° |
| 2026-04-24 08:17 | -26.03145 | 136.90859 | 38157 ft | 422 kts | 298° |
| 2026-04-24 08:18 | -25.99486 | 136.85744 | 38166 ft | 422 kts | 298° |
| 2026-04-24 08:18 | -25.95832 | 136.80641 | 38160 ft | 422 kts | 298° |
| 2026-04-24 08:19 | -25.92197 | 136.75571 | 38152 ft | 422 kts | 298° |
| 2026-04-24 08:19 | -25.88531 | 136.70462 | 38164 ft | 423 kts | 298° |
| 2026-04-24 08:20 | -25.84861 | 136.65355 | 38161 ft | 424 kts | 298° |
| 2026-04-24 08:20 | -25.81179 | 136.60237 | 38161 ft | 424 kts | 298° |
| 2026-04-24 08:21 | -25.77512 | 136.55148 | 38157 ft | 424 kts | 298° |
| 2026-04-24 08:21 | -25.73828 | 136.50039 | 38163 ft | 424 kts | 298° |
| 2026-04-24 08:22 | -25.70140 | 136.44931 | 38161 ft | 424 kts | 298° |
| 2026-04-24 08:22 | -25.66445 | 136.39820 | 38162 ft | 424 kts | 298° |
| 2026-04-24 08:23 | -25.62753 | 136.34717 | 38157 ft | 424 kts | 298° |
| 2026-04-24 08:23 | -25.59056 | 136.29612 | 38162 ft | 424 kts | 298° |
| 2026-04-24 08:24 | -25.55361 | 136.24516 | 38162 ft | 424 kts | 298° |
| 2026-04-24 08:24 | -25.51683 | 136.19451 | 38162 ft | 424 kts | 298° |
| 2026-04-24 08:25 | -25.47985 | 136.14362 | 38159 ft | 425 kts | 299° |
| 2026-04-24 08:25 | -25.44278 | 136.09265 | 38161 ft | 425 kts | 299° |
| 2026-04-24 08:26 | -25.40571 | 136.04176 | 38157 ft | 425 kts | 299° |
| 2026-04-24 08:26 | -25.36865 | 135.99093 | 38160 ft | 425 kts | 299° |
| 2026-04-24 08:27 | -25.33149 | 135.94001 | 38160 ft | 426 kts | 299° |
| 2026-04-24 08:27 | -25.29429 | 135.88907 | 38157 ft | 427 kts | 299° |
| 2026-04-24 08:28 | -25.25718 | 135.83835 | 38158 ft | 427 kts | 299° |
| 2026-04-24 08:28 | -25.21988 | 135.78743 | 38158 ft | 427 kts | 299° |
| 2026-04-24 08:29 | -25.18248 | 135.73641 | 38152 ft | 427 kts | 299° |
| 2026-04-24 08:29 | -25.14512 | 135.68550 | 38157 ft | 427 kts | 299° |
| 2026-04-24 08:30 | -25.10771 | 135.63458 | 38159 ft | 427 kts | 299° |
| 2026-04-24 08:30 | -25.07050 | 135.58398 | 38159 ft | 427 kts | 299° |
| 2026-04-24 08:31 | -25.03306 | 135.53312 | 38156 ft | 427 kts | 300° |
| 2026-04-24 08:31 | -24.99556 | 135.48225 | 38156 ft | 427 kts | 300° |
| 2026-04-24 08:32 | -24.95810 | 135.43147 | 38140 ft | 427 kts | 300° |
| 2026-04-24 08:32 | -24.92054 | 135.38060 | 38142 ft | 428 kts | 300° |
| 2026-04-24 08:33 | -24.88292 | 135.32971 | 38160 ft | 429 kts | 300° |
| 2026-04-24 08:33 | -24.84521 | 135.27878 | 38165 ft | 429 kts | 300° |
| 2026-04-24 08:34 | -24.80778 | 135.22827 | 38143 ft | 429 kts | 300° |
| 2026-04-24 08:34 | -24.77007 | 135.17743 | 38161 ft | 429 kts | 300° |
| 2026-04-24 08:35 | -24.73235 | 135.12664 | 38164 ft | 429 kts | 300° |
| 2026-04-24 08:35 | -24.69458 | 135.07583 | 38161 ft | 429 kts | 300° |
| 2026-04-24 08:36 | -24.65682 | 135.02508 | 38147 ft | 429 kts | 300° |
| 2026-04-24 08:36 | -24.61930 | 134.97471 | 38155 ft | 429 kts | 300° |
| 2026-04-24 08:37 | -24.58149 | 134.92402 | 38143 ft | 428 kts | 301° |
| 2026-04-24 08:37 | -24.54374 | 134.87342 | 38152 ft | 429 kts | 301° |
| 2026-04-24 08:38 | -24.50590 | 134.82278 | 38157 ft | 429 kts | 301° |
| 2026-04-24 08:38 | -24.46800 | 134.77211 | 38156 ft | 429 kts | 301° |
| 2026-04-24 08:39 | -24.43006 | 134.72144 | 38151 ft | 429 kts | 301° |
| 2026-04-24 08:39 | -24.39239 | 134.67118 | 38156 ft | 430 kts | 301° |
| 2026-04-24 08:40 | -24.35442 | 134.62059 | 38154 ft | 430 kts | 301° |
| 2026-04-24 08:40 | -24.31641 | 134.56999 | 38154 ft | 429 kts | 301° |
| 2026-04-24 08:41 | -24.27845 | 134.51951 | 38153 ft | 429 kts | 301° |
| 2026-04-24 08:41 | -24.24048 | 134.46906 | 38153 ft | 429 kts | 301° |
| 2026-04-24 08:42 | -24.20242 | 134.41855 | 38151 ft | 430 kts | 302° |
| 2026-04-24 08:42 | -24.16464 | 134.36847 | 38154 ft | 429 kts | 302° |
| 2026-04-24 08:43 | -24.12663 | 134.31812 | 38152 ft | 429 kts | 302° |
| 2026-04-24 08:43 | -24.08853 | 134.26770 | 38154 ft | 430 kts | 302° |
| 2026-04-24 08:44 | -24.05033 | 134.21720 | 38155 ft | 430 kts | 302° |
| 2026-04-24 08:44 | -24.01220 | 134.16688 | 38157 ft | 430 kts | 302° |
| 2026-04-24 08:45 | -23.97408 | 134.11661 | 38148 ft | 429 kts | 302° |
| 2026-04-24 08:45 | -23.93614 | 134.06661 | 38156 ft | 430 kts | 302° |
| 2026-04-24 08:46 | -23.89801 | 134.01641 | 38180 ft | 430 kts | 302° |
| 2026-04-24 08:46 | -23.85980 | 133.96616 | 38183 ft | 429 kts | 302° |
| 2026-04-24 08:47 | -23.82163 | 133.91603 | 38180 ft | 429 kts | 303° |
| 2026-04-24 08:47 | -23.78568 | 133.86434 | 38179 ft | 424 kts | 297° |
| 2026-04-24 08:48 | -23.75410 | 133.81007 | 38185 ft | 423 kts | 296° |
| 2026-04-24 08:48 | -23.72349 | 133.75568 | 38179 ft | 423 kts | 295° |
| 2026-04-24 08:49 | -23.69281 | 133.70100 | 38171 ft | 423 kts | 295° |
| 2026-04-24 08:49 | -23.66198 | 133.64631 | 38170 ft | 423 kts | 296° |
| 2026-04-24 08:50 | -23.63107 | 133.59166 | 38169 ft | 423 kts | 296° |
| 2026-04-24 08:50 | -23.60008 | 133.53699 | 38147 ft | 423 kts | 296° |
| 2026-04-24 08:51 | -23.56917 | 133.48251 | 38162 ft | 423 kts | 296° |
| 2026-04-24 08:51 | -23.53837 | 133.42828 | 38139 ft | 423 kts | 296° |
| 2026-04-24 08:52 | -23.50740 | 133.37377 | 38157 ft | 423 kts | 296° |
| 2026-04-24 08:52 | -23.47636 | 133.31922 | 38154 ft | 423 kts | 296° |